Latest Coastal Weather Observations for Hindmarsh Island

IDS60701

Issued at 9:11 pm CDT Friday 23 February 2024 (issued every 10 minutes, with the page automatically refreshed every 10 minutes)

About coastal observations | Map of coastal stations | Coastal observations for SA | Marine services | Other Formats
Station Details ID: 023894 Name: HINDMARSH ISLAND AWS Lat: -35.52 Lon: 138.82 Height: 11.0 m
Data from the previous 72 hours. | See also: Recent months at Hindmarsh Island
Date/Time
CDT
Wind Sea
Height
m
Swell Vis
km
Cloud Weather Temp
°C
Press
MSL
hPa
Rain since
9am
mm
Dir  Spd
kts
Gust
kts
Height
m
Period
s
Dir
23/09:00pm SSE 20 23 - - - - - - - 17.0 1020.5 0.0
23/08:30pm S 19 23 - - - - - - - 17.0 1020.3 -
23/08:00pm S 19 23 - - - - - - - 16.9 1019.9 -
23/07:30pm S 19 23 - - - - - - - 17.2 1019.6 -
23/07:00pm S 19 23 - - - - - - - 17.4 1019.3 -
23/06:30pm S 19 23 - - - - - - - 17.8 1019.2 -
23/06:00pm S 19 22 - - - - - - - 18.0 1018.9 -
23/05:30pm S 19 25 - - - - - - - 18.1 1018.6 -
23/05:00pm S 19 23 - - - - - - - 18.9 1018.5 -
23/04:30pm S 19 23 - - - - - - - 18.5 1018.3 -
23/04:00pm S 20 23 - - - - - - - 18.9 1018.3 -
23/03:30pm SSW 19 22 - - - - - - - 20.1 1018.6 -
23/03:00pm SSW 21 25 - - - - - - - 19.4 1018.7 -
23/02:30pm SSW 21 26 - - - - - - - 18.9 1018.5 -
23/02:00pm SSW 19 24 - - - - - - - 20.8 1018.7 -
23/01:30pm S 19 23 - - - - - - - 19.3 1018.6 -
23/01:00pm S 22 25 - - - - - - - 18.6 1018.6 -
23/12:30pm S 19 22 - - - - - - - 19.1 1018.5 -
23/12:09pm SSW 15 23 - - - - - - - 18.5 1018.6 -
23/12:00pm SW 11 13 - - - - - - - 18.2 1018.8 -
23/11:30am SSW 19 24 - - - - - - - 17.4 1018.9 -
23/11:25am SSW 17 23 - - - - - - - 17.2 1018.8 -
23/11:00am S 20 26 - - - - - - - 16.9 1018.6 -
23/10:37am SSW 19 24 - - - - - - - 16.1 1018.2 -
23/10:30am SW 16 24 - - - - - - - 17.6 1018.2 -
23/10:00am SW 23 29 - - - - - - - 16.8 1017.6 0.0
23/09:30am SW 19 23 - - - - - - - 18.2 1017.2 0.0
23/09:00am SSW 19 23 - - - - - - - 18.0 1016.8 0.0
23/08:30am SSW 20 26 - - - - - - - 18.0 1016.2 0.0
23/08:00am SW 21 25 - - - - - - - 17.9 1016.1 0.0
23/07:30am SSW 17 22 - - - - - - - 17.7 1015.5 0.0
23/07:00am SW 20 24 - - - - - - - 17.6 1014.9 0.0
23/06:30am SSW 23 27 - - - - - - - 17.5 1014.3 0.0
23/06:00am SW 19 26 - - - - - - - 17.2 1013.8 0.0
23/05:30am SSW 21 26 - - - - - - - 17.6 1013.3 0.0
23/05:00am SSW 23 27 - - - - - - - 17.7 1012.8 0.0
23/04:30am SSW 22 27 - - - - - - - 17.7 1012.6 0.0
23/04:00am SSW 19 23 - - - - - - - 17.6 1012.6 0.0
23/03:30am SSW 18 22 - - - - - - - 17.6 1012.5 0.0
23/03:00am SW 19 23 - - - - - - - 18.2 1012.4 0.0
23/02:30am SW 19 23 - - - - - - - 17.9 1012.3 0.0
23/02:00am SW 20 26 - - - - - - - 18.0 1012.3 0.0
23/01:30am SW 19 25 - - - - - - - 18.1 1012.3 0.0
23/01:00am SW 17 21 - - - - - - - 18.1 1012.2 0.0
23/12:30am SW 20 25 - - - - - - - 18.1 1012.2 0.0
23/12:00am SW 21 25 - - - - - - - 18.2 1011.8 0.0
 
Date/Time
CDT
Wind Sea
Height
m
Swell Vis
km
Cloud Weather Temp
°C
Press
MSL
hPa
Rain since
9am
mm
Dir  Spd
kts
Gust
kts
Height
m
Period
s
Dir
22/11:30pm SSW 20 24 - - - - - - - 18.3 1011.7 0.0
22/11:00pm SW 21 26 - - - - - - - 18.3 1011.7 0.0
22/10:30pm SSW 22 28 - - - - - - - 18.4 1011.5 0.0
22/10:00pm SSW 21 26 - - - - - - - 18.6 1011.2 0.0
22/09:30pm SSW 19 22 - - - - - - - 18.6 1010.8 0.0
22/09:00pm SSW 21 25 - - - - - - - 18.6 1010.4 0.0
22/08:30pm SSW 18 22 - - - - - - - 18.9 1010.0 0.0
22/08:00pm SSW 19 24 - - - - - - - 19.0 1009.4 0.0
22/07:30pm SSW 21 26 - - - - - - - 19.3 1009.0 0.0
22/07:00pm SSW 19 23 - - - - - - - 19.9 1008.7 0.0
22/06:30pm SSW 20 24 - - - - - - - 20.3 1008.4 0.0
22/06:00pm SSW 20 24 - - - - - - - 20.9 1008.1 0.0
22/05:30pm SSW 21 25 - - - - - - - 21.1 1007.7 0.0
22/05:00pm SSW 20 24 - - - - - - - 21.4 1007.5 0.0
22/04:30pm SSW 18 23 - - - - - - - 22.6 1007.2 0.0
22/04:00pm SW 17 21 - - - - - - - 22.9 1006.9 0.0
22/03:30pm SW 18 23 - - - - - - - 23.3 1006.9 0.0
22/03:00pm SSW 17 22 - - - - - - - 23.2 1007.0 0.0
22/02:30pm SSW 15 19 - - - - - - - 23.7 1007.1 0.0
22/02:00pm SSW 17 20 - - - - - - - 23.4 1007.2 0.0
22/01:30pm SSW 20 26 - - - - - - - 24.1 1006.9 0.0
22/01:10pm SSW 23 26 - - - - - - - 24.6 1006.8 0.0
22/01:00pm SW 17 26 - - - - - - - 26.8 1006.6 0.0
22/12:57pm WSW 15 25 - - - - - - - 29.2 1006.5 0.0
22/12:30pm WSW 12 19 - - - - - - - 31.1 1006.5 0.0
22/12:00pm SSW 12 14 - - - - - - - 27.7 1006.9 0.0
22/11:30am S 10 14 - - - - - - - 26.0 1006.8 0.0
22/11:00am S 9 14 - - - - - - - 25.1 1006.9 0.0
22/10:30am SSW 13 16 - - - - - - - 26.5 1006.7 0.0
22/10:00am N 5 8 - - - - - - - 30.2 1006.4 0.0
22/09:30am N 6 8 - - - - - - - 29.4 1006.4 0.0
22/09:00am NNW 8 12 - - - - - - - 27.6 1006.4 0.0
22/08:30am NNW 10 14 - - - - - - - 25.7 1006.3 0.0
22/08:00am NW 6 9 - - - - - - - 23.9 1006.2 0.0
22/07:30am NW 6 8 - - - - - - - 22.3 1006.1 0.0
22/07:00am W 2 3 - - - - - - - 21.7 1006.1 0.0
22/06:30am W 6 7 - - - - - - - 21.7 1005.5 0.0
22/06:00am W 7 9 - - - - - - - 21.5 1005.2 0.0
22/05:30am NW 7 9 - - - - - - - 21.9 1004.9 0.0
22/05:00am NNW 2 5 - - - - - - - 21.2 1004.7 0.0
22/04:30am N 3 6 - - - - - - - 21.1 1004.4 0.0
22/04:00am NNE 6 9 - - - - - - - 20.8 1004.5 0.0
22/03:30am ENE 5 7 - - - - - - - 19.6 1004.9 0.0
22/03:00am CALM 0 3 - - - - - - - 20.7 1005.2 0.0
22/02:30am NW 8 9 - - - - - - - 21.8 1005.2 0.0
22/02:00am N 10 12 - - - - - - - 22.4 1005.0 0.0
22/01:30am N 5 7 - - - - - - - 20.4 1005.7 0.0
22/01:00am NNE 5 7 - - - - - - - 20.8 1006.1 0.0
22/12:30am NE 9 11 - - - - - - - 20.0 1006.5 0.0
22/12:00am N 3 5 - - - - - - - 20.5 1006.5 0.0
 
Date/Time
CDT
Wind Sea
Height
m
Swell Vis
km
Cloud Weather Temp
°C
Press
MSL
hPa
Rain since
9am
mm
Dir  Spd
kts
Gust
kts
Height
m
Period
s
Dir
21/11:30pm N 2 5 - - - - - - - 21.6 1006.8 0.0
21/11:00pm N 3 5 - - - - - - - 21.8 1007.2 0.0
21/10:30pm N 3 4 - - - - - - - 22.1 1007.2 0.0
21/10:00pm CALM 0 3 - - - - - - - 21.5 1007.1 0.0
21/09:30pm S 4 4 - - - - - - - 22.0 1007.2 0.0
21/09:00pm S 4 5 - - - - - - - 22.5 1006.9 0.0
21/08:30pm SSW 5 6 - - - - - - - 22.7 1006.7 0.0
21/08:00pm SSW 7 9 - - - - - - - 23.7 1006.5 0.0
21/07:30pm SSW 6 7 - - - - - - - 25.0 1006.2 0.0
21/07:00pm SW 6 8 - - - - - - - 25.5 1006.0 0.0
21/06:30pm SW 9 11 - - - - - - - 25.3 1006.0 0.0
21/06:00pm SW 10 13 - - - - - - - 25.8 1005.8 0.0
21/05:30pm SW 9 11 - - - - - - - 26.6 1006.1 0.0
21/05:00pm SW 8 11 - - - - - - - 27.4 1006.1 0.0
21/04:30pm S 9 13 - - - - - - - 28.3 1006.0 0.0
21/04:00pm S 10 13 - - - - - - - 29.3 1006.0 0.0
21/03:30pm SSW 12 14 - - - - - - - 32.0 1006.2 0.0
21/03:00pm WSW 8 13 - - - - - - - 33.7 1006.2 0.0
21/02:30pm ENE 12 17 - - - - - - - 38.0 1006.3 0.0
21/02:00pm ENE 11 17 - - - - - - - 37.9 1006.8 0.0
21/01:30pm ENE 12 17 - - - - - - - 36.7 1007.3 0.0
21/01:00pm ENE 13 18 - - - - - - - 36.0 1008.0 0.0
21/12:30pm ENE 13 17 - - - - - - - 34.5 1008.5 0.0
21/12:00pm ENE 12 17 - - - - - - - 32.9 1009.0 0.0
21/11:30am ENE 11 16 - - - - - - - 32.2 1009.4 0.0
21/11:00am ENE 13 15 - - - - - - - 30.2 1009.8 0.0
21/10:30am NE 11 13 - - - - - - - 29.4 1010.1 0.0
21/10:00am NE 10 13 - - - - - - - 28.1 1010.2 0.0
21/09:30am NE 7 9 - - - - - - - 26.8 1010.3 0.0
21/09:00am NE 5 7 - - - - - - - 24.3 1010.3 0.0
21/08:30am NNE 5 6 - - - - - - - 22.3 1010.3 0.0
21/08:00am N 4 5 - - - - - - - 20.8 1010.2 0.0
21/07:30am NE 2 5 - - - - - - - 19.3 1010.0 0.0
21/07:00am WSW 2 4 - - - - - - - 19.6 1010.1 0.0
21/06:30am NE 6 8 - - - - - - - 19.6 1009.4 0.0
21/06:00am NE 7 8 - - - - - - - 20.3 1009.5 0.0
21/05:30am ENE 6 7 - - - - - - - 20.0 1009.5 0.0
21/05:00am ENE 7 8 - - - - - - - 20.2 1009.5 0.0
21/04:30am NE 5 7 - - - - - - - 20.3 1009.7 0.0
21/04:00am E 7 9 - - - - - - - 19.7 1009.6 0.0
21/03:30am E 8 9 - - - - - - - 19.2 1009.6 0.0
21/03:00am E 9 10 - - - - - - - 19.7 1009.5 0.0
21/02:30am E 6 7 - - - - - - - 20.6 1009.8 0.0
21/02:00am E 7 7 - - - - - - - 21.0 1010.1 0.0
21/01:30am E 6 7 - - - - - - - 21.4 1010.3 0.0
21/01:00am E 7 7 - - - - - - - 21.8 1010.3 0.0
21/12:30am E 7 8 - - - - - - - 21.9 1010.4 0.0
21/12:00am E 7 8 - - - - - - - 22.3 1010.4 0.0
 
Date/Time
CDT
Wind Sea
Height
m
Swell Vis
km
Cloud Weather Temp
°C
Press
MSL
hPa
Rain since
9am
mm
Dir  Spd
kts
Gust
kts
Height
m
Period
s
Dir
20/11:30pm NNE 7 9 - - - - - - - 23.9 1010.4 0.0
20/11:00pm NE 5 6 - - - - - - - 22.9 1010.6 0.0
20/10:30pm N 5 6 - - - - - - - 24.7 1010.6 0.0
20/10:00pm NNE 7 9 - - - - - - - 25.4 1010.4 0.0
20/09:30pm NNE 9 11 - - - - - - - 25.5 1010.2 0.0

Other formats

Comma delimited format used in spreadsheet applications
http://www.bom.gov.au/fwo/IDS60701/IDS60701.94677.axf

JavaScript Object Notation format (JSON) in row-major order
http://www.bom.gov.au/fwo/IDS60701/IDS60701.94677.json

Data quality

Most of these data are generated automatically and are frequently updated. Quality checks on data are not normally performed. It is possible for incorrect values to appear. Refer to information at About Latest Weather Observations and please check the disclaimer before using these data.